sensor_id;sensor_type;location;lat;lon;timestamp;P1;durP1;ratioP1;P2;durP2;ratioP2
56413;SDS011;42318;48.452;19.526;2023-02-03T00:06:21;3.97;;;1.50;;
56413;SDS011;42318;48.452;19.526;2023-02-03T00:13:52;2.22;;;1.13;;
56413;SDS011;42318;48.452;19.526;2023-02-03T00:21:23;2.70;;;1.10;;
56413;SDS011;42318;48.452;19.526;2023-02-03T00:28:54;2.15;;;1.20;;
56413;SDS011;42318;48.452;19.526;2023-02-03T00:36:25;3.72;;;2.42;;
56413;SDS011;42318;48.452;19.526;2023-02-03T00:43:56;1.90;;;1.20;;
56413;SDS011;42318;48.452;19.526;2023-02-03T00:51:27;1.60;;;1.20;;
56413;SDS011;42318;48.452;19.526;2023-02-03T00:58:58;2.00;;;1.08;;
56413;SDS011;42318;48.452;19.526;2023-02-03T01:06:29;2.88;;;1.25;;
56413;SDS011;42318;48.452;19.526;2023-02-03T01:14:00;2.75;;;1.13;;
56413;SDS011;42318;48.452;19.526;2023-02-03T01:21:31;2.13;;;1.30;;
56413;SDS011;42318;48.452;19.526;2023-02-03T01:29:02;1.37;;;1.00;;
56413;SDS011;42318;48.452;19.526;2023-02-03T01:36:33;2.95;;;1.15;;
56413;SDS011;42318;48.452;19.526;2023-02-03T01:52:13;2.13;;;1.00;;
56413;SDS011;42318;48.452;19.526;2023-02-03T01:59:44;2.03;;;1.10;;
56413;SDS011;42318;48.452;19.526;2023-02-03T02:07:17;2.15;;;1.10;;
56413;SDS011;42318;48.452;19.526;2023-02-03T02:14:49;1.85;;;1.38;;
56413;SDS011;42318;48.452;19.526;2023-02-03T02:30:35;1.00;;;0.70;;
56413;SDS011;42318;48.452;19.526;2023-02-03T02:46:07;1.73;;;1.05;;
56413;SDS011;42318;48.452;19.526;2023-02-03T02:53:44;1.10;;;0.70;;
56413;SDS011;42318;48.452;19.526;2023-02-03T03:01:18;1.60;;;0.77;;
56413;SDS011;42318;48.452;19.526;2023-02-03T03:08:57;1.00;;;0.80;;
56413;SDS011;42318;48.452;19.526;2023-02-03T03:16:35;1.98;;;0.90;;
56413;SDS011;42318;48.452;19.526;2023-02-03T03:24:09;1.23;;;0.70;;
56413;SDS011;42318;48.452;19.526;2023-02-03T03:31:43;1.65;;;1.00;;
56413;SDS011;42318;48.452;19.526;2023-02-03T03:39:57;1.08;;;0.68;;
56413;SDS011;42318;48.452;19.526;2023-02-03T03:47:19;1.67;;;0.80;;
56413;SDS011;42318;48.452;19.526;2023-02-03T03:54:58;1.88;;;0.85;;
56413;SDS011;42318;48.452;19.526;2023-02-03T04:02:30;1.13;;;0.68;;
56413;SDS011;42318;48.452;19.526;2023-02-03T04:10:04;2.47;;;0.93;;
56413;SDS011;42318;48.452;19.526;2023-02-03T04:17:42;1.23;;;0.70;;
56413;SDS011;42318;48.452;19.526;2023-02-03T04:25:12;2.90;;;0.70;;
56413;SDS011;42318;48.452;19.526;2023-02-03T04:32:44;1.05;;;0.60;;
56413;SDS011;42318;48.452;19.526;2023-02-03T04:40:15;1.45;;;1.00;;
56413;SDS011;42318;48.452;19.526;2023-02-03T04:47:49;5.75;;;1.17;;
56413;SDS011;42318;48.452;19.526;2023-02-03T04:55:22;0.98;;;0.60;;
56413;SDS011;42318;48.452;19.526;2023-02-03T05:02:53;1.23;;;0.68;;
56413;SDS011;42318;48.452;19.526;2023-02-03T05:10:24;2.30;;;1.00;;
56413;SDS011;42318;48.452;19.526;2023-02-03T05:17:55;1.70;;;0.70;;
56413;SDS011;42318;48.452;19.526;2023-02-03T05:25:26;1.58;;;0.98;;
56413;SDS011;42318;48.452;19.526;2023-02-03T05:32:57;1.48;;;1.00;;
56413;SDS011;42318;48.452;19.526;2023-02-03T05:40:28;1.83;;;0.82;;
56413;SDS011;42318;48.452;19.526;2023-02-03T05:48:17;2.13;;;0.70;;
56413;SDS011;42318;48.452;19.526;2023-02-03T05:55:48;1.50;;;0.80;;
56413;SDS011;42318;48.452;19.526;2023-02-03T06:03:19;2.10;;;0.90;;
56413;SDS011;42318;48.452;19.526;2023-02-03T06:10:50;1.67;;;0.80;;
56413;SDS011;42318;48.452;19.526;2023-02-03T06:18:20;1.40;;;0.90;;
56413;SDS011;42318;48.452;19.526;2023-02-03T06:25:51;1.77;;;0.70;;
56413;SDS011;42318;48.452;19.526;2023-02-03T06:33:22;1.52;;;0.88;;
56413;SDS011;42318;48.452;19.526;2023-02-03T06:40:53;2.17;;;1.17;;
56413;SDS011;42318;48.452;19.526;2023-02-03T06:48:24;2.13;;;1.08;;
56413;SDS011;42318;48.452;19.526;2023-02-03T06:55:54;2.00;;;1.10;;
56413;SDS011;42318;48.452;19.526;2023-02-03T07:03:25;2.05;;;1.10;;
56413;SDS011;42318;48.452;19.526;2023-02-03T07:10:56;1.75;;;1.25;;
56413;SDS011;42318;48.452;19.526;2023-02-03T07:18:27;1.77;;;1.00;;
56413;SDS011;42318;48.452;19.526;2023-02-03T07:25:59;1.90;;;1.13;;
56413;SDS011;42318;48.452;19.526;2023-02-03T07:33:30;2.13;;;1.30;;
56413;SDS011;42318;48.452;19.526;2023-02-03T07:41:01;2.72;;;1.40;;
56413;SDS011;42318;48.452;19.526;2023-02-03T07:48:32;1.73;;;1.58;;
56413;SDS011;42318;48.452;19.526;2023-02-03T07:56:03;4.18;;;1.40;;
56413;SDS011;42318;48.452;19.526;2023-02-03T08:03:34;4.77;;;1.67;;
56413;SDS011;42318;48.452;19.526;2023-02-03T08:11:05;5.22;;;1.90;;
56413;SDS011;42318;48.452;19.526;2023-02-03T08:18:36;4.10;;;2.20;;
56413;SDS011;42318;48.452;19.526;2023-02-03T08:26:07;4.38;;;2.20;;
56413;SDS011;42318;48.452;19.526;2023-02-03T08:33:38;4.10;;;2.13;;
56413;SDS011;42318;48.452;19.526;2023-02-03T08:41:09;5.63;;;2.50;;
56413;SDS011;42318;48.452;19.526;2023-02-03T08:48:41;4.53;;;2.60;;
56413;SDS011;42318;48.452;19.526;2023-02-03T08:56:12;2.97;;;1.98;;
56413;SDS011;42318;48.452;19.526;2023-02-03T09:03:43;4.93;;;2.47;;
56413;SDS011;42318;48.452;19.526;2023-02-03T09:11:15;5.32;;;2.13;;
56413;SDS011;42318;48.452;19.526;2023-02-03T09:18:48;4.25;;;2.13;;
56413;SDS011;42318;48.452;19.526;2023-02-03T09:26:18;5.72;;;2.15;;
56413;SDS011;42318;48.452;19.526;2023-02-03T09:33:49;6.22;;;2.10;;
56413;SDS011;42318;48.452;19.526;2023-02-03T09:49:23;4.20;;;2.25;;
56413;SDS011;42318;48.452;19.526;2023-02-03T09:56:58;4.80;;;1.92;;
56413;SDS011;42318;48.452;19.526;2023-02-03T10:04:37;5.47;;;1.88;;
56413;SDS011;42318;48.452;19.526;2023-02-03T10:12:24;6.85;;;2.10;;
56413;SDS011;42318;48.452;19.526;2023-02-03T10:27:39;5.22;;;1.63;;
56413;SDS011;42318;48.452;19.526;2023-02-03T10:35:18;4.47;;;1.88;;
56413;SDS011;42318;48.452;19.526;2023-02-03T10:42:52;3.95;;;1.88;;
56413;SDS011;42318;48.452;19.526;2023-02-03T10:50:43;5.25;;;2.63;;
56413;SDS011;42318;48.452;19.526;2023-02-03T10:58:24;10.25;;;2.72;;
56413;SDS011;42318;48.452;19.526;2023-02-03T11:13:44;5.63;;;2.80;;
56413;SDS011;42318;48.452;19.526;2023-02-03T11:28:57;6.93;;;3.60;;
56413;SDS011;42318;48.452;19.526;2023-02-03T11:36:31;7.28;;;3.95;;
56413;SDS011;42318;48.452;19.526;2023-02-03T12:39:20;8.82;;;5.18;;
56413;SDS011;42318;48.452;19.526;2023-02-03T12:47:04;9.75;;;5.70;;
56413;SDS011;42318;48.452;19.526;2023-02-03T13:02:47;9.23;;;5.38;;
56413;SDS011;42318;48.452;19.526;2023-02-03T13:10:22;8.57;;;4.75;;
56413;SDS011;42318;48.452;19.526;2023-02-03T13:18:07;7.25;;;4.53;;
56413;SDS011;42318;48.452;19.526;2023-02-03T13:26:11;7.43;;;4.50;;
56413;SDS011;42318;48.452;19.526;2023-02-03T13:41:54;8.25;;;4.82;;
56413;SDS011;42318;48.452;19.526;2023-02-03T13:49:37;8.65;;;5.18;;
56413;SDS011;42318;48.452;19.526;2023-02-03T13:57:19;8.30;;;5.07;;
56413;SDS011;42318;48.452;19.526;2023-02-03T14:04:53;9.80;;;5.45;;
56413;SDS011;42318;48.452;19.526;2023-02-03T14:20:00;10.80;;;5.15;;
56413;SDS011;42318;48.452;19.526;2023-02-03T14:27:33;8.48;;;5.00;;
56413;SDS011;42318;48.452;19.526;2023-02-03T14:35:06;9.75;;;5.07;;
56413;SDS011;42318;48.452;19.526;2023-02-03T14:58:52;8.13;;;4.32;;
56413;SDS011;42318;48.452;19.526;2023-02-03T15:06:38;7.07;;;4.25;;
56413;SDS011;42318;48.452;19.526;2023-02-03T15:14:16;8.43;;;4.90;;
56413;SDS011;42318;48.452;19.526;2023-02-03T15:21:50;8.63;;;4.60;;
56413;SDS011;42318;48.452;19.526;2023-02-03T15:29:28;7.40;;;4.85;;
56413;SDS011;42318;48.452;19.526;2023-02-03T15:37:06;7.63;;;4.05;;
56413;SDS011;42318;48.452;19.526;2023-02-03T15:44:42;7.00;;;3.97;;
56413;SDS011;42318;48.452;19.526;2023-02-03T15:52:19;6.07;;;4.35;;
56413;SDS011;42318;48.452;19.526;2023-02-03T15:59:57;6.00;;;4.07;;
56413;SDS011;42318;48.452;19.526;2023-02-03T16:07:38;7.13;;;4.07;;
56413;SDS011;42318;48.452;19.526;2023-02-03T16:15:29;7.22;;;4.50;;
56413;SDS011;42318;48.452;19.526;2023-02-03T16:23:27;7.80;;;4.65;;
56413;SDS011;42318;48.452;19.526;2023-02-03T16:38:50;6.20;;;4.03;;
56413;SDS011;42318;48.452;19.526;2023-02-03T16:46:39;8.10;;;4.90;;
56413;SDS011;42318;48.452;19.526;2023-02-03T16:54:28;7.03;;;4.40;;
56413;SDS011;42318;48.452;19.526;2023-02-03T17:01:59;6.82;;;4.90;;
56413;SDS011;42318;48.452;19.526;2023-02-03T17:09:30;8.00;;;4.40;;
56413;SDS011;42318;48.452;19.526;2023-02-03T17:17:04;7.68;;;4.35;;
56413;SDS011;42318;48.452;19.526;2023-02-03T17:24:35;7.72;;;5.15;;
56413;SDS011;42318;48.452;19.526;2023-02-03T17:32:06;8.40;;;5.22;;
56413;SDS011;42318;48.452;19.526;2023-02-03T17:39:37;9.32;;;5.10;;
56413;SDS011;42318;48.452;19.526;2023-02-03T17:47:08;8.65;;;5.43;;
56413;SDS011;42318;48.452;19.526;2023-02-03T17:54:39;10.10;;;4.47;;
56413;SDS011;42318;48.452;19.526;2023-02-03T18:02:10;7.70;;;4.88;;
56413;SDS011;42318;48.452;19.526;2023-02-03T18:09:40;8.38;;;5.75;;
56413;SDS011;42318;48.452;19.526;2023-02-03T18:17:11;7.72;;;4.65;;
56413;SDS011;42318;48.452;19.526;2023-02-03T18:24:42;6.45;;;4.90;;
56413;SDS011;42318;48.452;19.526;2023-02-03T18:32:16;6.35;;;4.43;;
56413;SDS011;42318;48.452;19.526;2023-02-03T18:39:47;8.07;;;5.40;;
56413;SDS011;42318;48.452;19.526;2023-02-03T18:47:18;7.53;;;4.88;;
56413;SDS011;42318;48.452;19.526;2023-02-03T18:54:49;7.65;;;5.13;;
56413;SDS011;42318;48.452;19.526;2023-02-03T19:02:21;9.07;;;5.40;;
56413;SDS011;42318;48.452;19.526;2023-02-03T19:09:55;8.15;;;4.75;;
56413;SDS011;42318;48.452;19.526;2023-02-03T19:17:26;9.88;;;5.68;;
56413;SDS011;42318;48.452;19.526;2023-02-03T19:24:56;7.68;;;4.90;;
56413;SDS011;42318;48.452;19.526;2023-02-03T19:32:27;7.55;;;5.10;;
56413;SDS011;42318;48.452;19.526;2023-02-03T19:39:58;7.88;;;4.60;;
56413;SDS011;42318;48.452;19.526;2023-02-03T19:47:29;10.52;;;5.03;;
56413;SDS011;42318;48.452;19.526;2023-02-03T19:55:00;6.43;;;4.60;;
56413;SDS011;42318;48.452;19.526;2023-02-03T20:02:31;7.13;;;4.55;;
56413;SDS011;42318;48.452;19.526;2023-02-03T20:10:02;8.25;;;4.75;;
56413;SDS011;42318;48.452;19.526;2023-02-03T20:17:33;5.88;;;4.20;;
56413;SDS011;42318;48.452;19.526;2023-02-03T20:25:06;6.53;;;4.78;;
56413;SDS011;42318;48.452;19.526;2023-02-03T20:32:37;7.75;;;5.05;;
56413;SDS011;42318;48.452;19.526;2023-02-03T20:40:11;6.07;;;4.32;;
56413;SDS011;42318;48.452;19.526;2023-02-03T20:47:46;7.60;;;4.72;;
56413;SDS011;42318;48.452;19.526;2023-02-03T20:55:18;5.93;;;4.30;;
56413;SDS011;42318;48.452;19.526;2023-02-03T21:02:51;6.15;;;3.92;;
56413;SDS011;42318;48.452;19.526;2023-02-03T21:10:40;6.15;;;4.25;;
56413;SDS011;42318;48.452;19.526;2023-02-03T21:26:04;5.00;;;3.78;;
56413;SDS011;42318;48.452;19.526;2023-02-03T21:33:44;6.38;;;4.07;;
56413;SDS011;42318;48.452;19.526;2023-02-03T21:41:16;4.85;;;3.60;;
56413;SDS011;42318;48.452;19.526;2023-02-03T21:48:49;7.80;;;4.00;;
56413;SDS011;42318;48.452;19.526;2023-02-03T21:56:23;6.65;;;3.45;;
56413;SDS011;42318;48.452;19.526;2023-02-03T22:03:55;5.18;;;3.30;;
56413;SDS011;42318;48.452;19.526;2023-02-03T22:11:28;4.68;;;3.60;;
56413;SDS011;42318;48.452;19.526;2023-02-03T22:18:59;6.68;;;3.85;;
56413;SDS011;42318;48.452;19.526;2023-02-03T22:26:30;4.75;;;3.42;;
56413;SDS011;42318;48.452;19.526;2023-02-03T22:34:01;6.10;;;3.42;;
56413;SDS011;42318;48.452;19.526;2023-02-03T22:41:32;4.55;;;3.60;;
56413;SDS011;42318;48.452;19.526;2023-02-03T22:49:02;5.13;;;3.50;;
56413;SDS011;42318;48.452;19.526;2023-02-03T22:56:33;4.50;;;3.08;;
56413;SDS011;42318;48.452;19.526;2023-02-03T23:04:04;4.28;;;3.00;;
56413;SDS011;42318;48.452;19.526;2023-02-03T23:11:35;5.15;;;3.40;;
56413;SDS011;42318;48.452;19.526;2023-02-03T23:19:06;4.55;;;3.13;;
56413;SDS011;42318;48.452;19.526;2023-02-03T23:26:37;5.00;;;3.45;;
56413;SDS011;42318;48.452;19.526;2023-02-03T23:34:07;5.03;;;3.22;;
56413;SDS011;42318;48.452;19.526;2023-02-03T23:41:57;5.05;;;3.40;;
56413;SDS011;42318;48.452;19.526;2023-02-03T23:49:27;4.30;;;3.00;;
56413;SDS011;42318;48.452;19.526;2023-02-03T23:56:58;4.65;;;3.10;;
